This is the latest recevied weather packets stored in our database for station/object EW5546. If no packets are shown the sender has not sent any weather packets the latest 10 day(s).
| Time | Temp. | Humidity | Pressure | Rain* | Wind** | Luminosity | Snow |
|---|---|---|---|---|---|---|---|
| 1777101625 | 13.89° C | 47% | 1008 hPa | 0 mm | - | - | - |
| 1777099236 | 12.78° C | 50% | 1008 hPa | 0 mm | - | - | - |
| 1777095660 | 11.67° C | 51% | 1008 hPa | 0 mm | - | - | - |
| 1777094423 | 11.67° C | 51% | 1008 hPa | 0 mm | - | - | - |
| 1777093230 | 11.11° C | 51% | 1008 hPa | 0 mm | - | - | - |
| 1777092644 | 11.11° C | 51% | 1008 hPa | 0 mm | - | - | - |
| 1777091425 | 11.11° C | 50% | 1008 hPa | 0 mm | - | - | - |
| 1777090230 | 11.11° C | 50% | 1008 hPa | 0 mm | - | - | - |
| 1777088424 | 11.67° C | 49% | 1008 hPa | 0 mm | - | - | - |
| 1777086618 | 11.67° C | 49% | 1008 hPa | 0 mm | - | - | - |
| 1777084223 | 12.22° C | 48% | 1009 hPa | 0 mm | - | - | - |
| 1777078218 | 12.78° C | 46% | 1009 hPa | 0 mm | - | - | - |
| 1777076423 | 13.33° C | 45% | 1009 hPa | 0 mm | - | - | - |
| 1777074664 | 13.33° C | 45% | 1010 hPa | 0 mm | - | - | - |
| 1777071038 | 13.33° C | 43% | 1010 hPa | 0 mm | - | - | - |
| 1777070434 | 13.89° C | 43% | 1010 hPa | 0 mm | - | - | - |
| 1777066220 | 13.89° C | 41% | 1010 hPa | 0 mm | - | - | - |
| 1777065618 | 14.44° C | 40% | 1010 hPa | 0 mm | - | - | - |
| 1777064425 | 14.44° C | 40% | 1010 hPa | 0 mm | - | - | - |
| 1777063223 | 14.44° C | 39% | 1010 hPa | 0 mm | - | - | - |
| 1777058443 | 14.44° C | 35% | 1010 hPa | 0 mm | - | - | - |
| 1777057828 | 14.44° C | 35% | 1010 hPa | 0 mm | - | - | - |
| 1777055416 | 15° C | 34% | 1010 hPa | 0 mm | - | - | - |
| 1777054824 | 15.56° C | 34% | 1010 hPa | 0 mm | - | - | - |
| 1777051838 | 16.11° C | 33% | 1010 hPa | 0 mm | - | - | - |
* Rain latest hour (hover to see other rain measurements)
** Current wind speed in m/s (hover to see current wind gust speed)